Ventura — ZCDT2 — position and weather

sailwx.info

Track history (hours):
 
Tides and Currents Weather Stations Pressure Air Temp Water Temp Dewpoint Dewpoint Depression Visibility Wind Speed Wind Dir Waves Ship Positions

Ventura

Last reported at 2019-Jul-20 13:29 UTC. Time now 2019-Jul-20 13:54 UTC.
Position N 49°28' W 002°30'.

Length 289 m; draft 8.6 m.

Type: Passenger vessel. MMSI: 310562000.

Date/timePositionNaut miles runAvg speedWind from/ knotsBaromVisibWave heightAir tempDewpointWater temp
2019-Jul-20 13:29N 49°28' W 002°30'0 0.2
2019-Jul-20 12:59N 49°28' W 002°30'0 0.0
2019-Jul-20 12:29N 49°28' W 002°30'0 0.0
2019-Jul-20 11:59N 49°28' W 002°30'0 0.0
2019-Jul-20 11:29N 49°28' W 002°30'0 0.0
2019-Jul-20 10:59N 49°28' W 002°30'0 0.0
2019-Jul-20 10:26N 49°28' W 002°30'0 0.0
2019-Jul-20 09:59N 49°28' W 002°30'0 0.0
2019-Jul-20 09:29N 49°28' W 002°30'0 0.0
2019-Jul-20 08:59N 49°28' W 002°30'0 0.0
2019-Jul-20 08:26N 49°28' W 002°30'0 0.0
2019-Jul-20 07:59N 49°28' W 002°30'0 0.0
2019-Jul-20 07:29N 49°28' W 002°30'0 0.1
2019-Jul-20 06:59N 49°28' W 002°30'0 0.0
2019-Jul-20 06:29N 49°28' W 002°30'1 1.4
2019-Jul-20 06:00N 49°27' W 002°30'510.0
2019-Jul-20 05:30N 49°23' W 002°33'5 9.9
2019-Jul-20 05:00N 49°21' W 002°40'6 8.6
2019-Jul-20 04:20N 49°22' W 002°49'3 9.5
2019-Jul-20 03:59N 49°25' W 002°50'4 8.9
2019-Jul-20 03:30N 49°29' W 002°51'5 8.6
2019-Jul-20 02:58N 49°34' W 002°53'4 8.4
2019-Jul-20 02:30N 49°37' W 002°55'4 8.4
2019-Jul-20 02:00N 49°42' W 002°57'4 8.1
2019-Jul-20 01:30N 49°45' W 002°58'4 8.6
2019-Jul-20 01:00N 49°50' W 002°59'4 8.8
2019-Jul-20 00:30N 49°54' W 002°59'4 8.0
2019-Jul-20 00:00N 49°57' W 002°55'4 8.5
2019-Jul-19 23:30N 49°58' W 002°49'4 8.1
2019-Jul-19 23:00N 49°59' W 002°43'4 7.3
2019-Jul-19 22:30N 50°00' W 002°37'3 6.9
2019-Jul-19 22:00N 50°01' W 002°32'3 6.6
2019-Jul-19 21:30N 50°02' W 002°27'3 6.4
2019-Jul-19 21:00N 50°03' W 002°22'4 6.4
2019-Jul-19 20:19N 50°04' W 002°16'2 6.4
2019-Jul-19 20:00N 50°05' W 002°13'3 6.3
2019-Jul-19 19:30N 50°06' W 002°08'3 6.9
2019-Jul-19 19:00N 50°07' W 002°03'131260.8
2019-Jul-19 19:00N 50°06' W 001°42'1020.1 230 / 281009.8 0.3 18.517.715.7
2019-Jul-19 18:30N 50°08' W 001°57'4 8.4
2019-Jul-19 18:00N 50°09' W 001°51'5 9.0
2019-Jul-19 17:30N 50°10' W 001°44'5 9.9
2019-Jul-19 17:00N 50°11' W 001°36'510.4
2019-Jul-19 16:30N 50°13' W 001°29'510.6
2019-Jul-19 16:00N 50°14' W 001°21'510.9
2019-Jul-19 15:30N 50°15' W 001°12'611.2
2019-Jul-19 15:00N 50°17' W 001°04'510.7
2019-Jul-19 14:30N 50°18' W 000°56'5 9.7
2019-Jul-19 14:00N 50°20' W 000°49'5 9.2
2019-Jul-19 13:30N 50°21' W 000°42'4 8.6
2019-Jul-19 13:00N 50°22' W 000°35'4 7.8
2019-Jul-19 12:30N 50°24' W 000°30'4 7.6
2019-Jul-19 12:00N 50°24' W 000°24'4 7.2
2019-Jul-19 11:30N 50°25' W 000°18'3 6.8
2019-Jul-19 11:00N 50°26' W 000°13'3 6.5
2019-Jul-19 10:30N 50°27' W 000°08'3 6.4
2019-Jul-19 10:00N 50°27' W 000°03'3 6.4
2019-Jul-19 09:30N 50°28' E 000°02'3 6.5
2019-Jul-19 09:00N 50°29' E 000°07'4 6.5
2019-Jul-19 08:27N 50°30' E 000°12'3 7.1
2019-Jul-19 07:58N 50°31' E 000°17'4 7.7
2019-Jul-19 07:30N 50°32' E 000°23'4 8.2
2019-Jul-19 07:00N 50°33' E 000°29'8 8.5
2019-Jul-19 06:07N 50°36' E 000°40'4 8.9
2019-Jul-19 05:37N 50°39' E 000°45'1 8.8
2019-Jul-19 05:30N 50°40' E 000°46'4 8.7
2019-Jul-19 05:00N 50°42' E 000°52'4 8.4
2019-Jul-19 04:30N 50°45' E 000°57'4 8.1
2019-Jul-19 04:00N 50°47' E 001°02'4 7.7
2019-Jul-19 03:30N 50°49' E 001°07'4 7.2
2019-Jul-19 03:00N 50°52' E 001°12'4 7.0
2019-Jul-19 02:30N 50°54' E 001°16'4 7.1
2019-Jul-19 02:00N 50°56' E 001°20'3 6.6
2019-Jul-19 01:30N 50°59' E 001°24'3 6.4
2019-Jul-19 01:00N 51°01' E 001°27'3 6.3
2019-Jul-19 00:30N 51°03' E 001°31'3 6.3
2019-Jul-19 00:00N 51°06' E 001°34'3 6.3
2019-Jul-18 23:30N 51°08' E 001°38'3 6.7
2019-Jul-18 23:00N 51°10' E 001°42'4 8.4
2019-Jul-18 22:30N 51°13' E 001°46'4 8.8
2019-Jul-18 22:00N 51°17' E 001°50'5 9.5
2019-Jul-18 21:30N 51°21' E 001°54'5 9.4
2019-Jul-18 21:00N 51°24' E 001°59'4 7.5
2019-Jul-18 20:30N 51°24' E 002°05'4 8.0
2019-Jul-18 20:00N 51°22' E 002°11'4 8.0
2019-Jul-18 19:30N 51°21' E 002°16'4 7.8
2019-Jul-18 19:00N 51°21' E 002°23'9562.3
2019-Jul-18 19:00N 51°18' E 002°36'714.3 230 / 271009.910.8 19.015.616.8
2019-Jul-18 18:30N 51°23' E 002°28'4 7.9
2019-Jul-18 18:00N 51°23' E 002°34'4 8.3
2019-Jul-18 17:30N 51°23' E 002°41'5 9.0
2019-Jul-18 17:00N 51°25' E 002°48'713.7
2019-Jul-18 16:30N 51°25' E 002°59'714.4
2019-Jul-18 16:00N 51°23' E 003°10'3 4.8
2019-Jul-18 15:26N 51°20' E 003°12'0 0.0
2019-Jul-18 14:59N 51°20' E 003°12'0 0.0
2019-Jul-18 14:26N 51°20' E 003°12'0 0.0
2019-Jul-18 13:59N 51°20' E 003°12'0 0.0
2019-Jul-18 13:17N 51°20' E 003°12'0 0.0
2019-Jul-18 12:59N 51°20' E 003°12'0 0.0
2019-Jul-18 12:29N 51°20' E 003°12'0 0.0
2019-Jul-18 11:59N 51°20' E 003°12'0 0.0
2019-Jul-18 11:29N 51°20' E 003°12'0 0.0
2019-Jul-18 10:59N 51°20' E 003°12'0 0.0
2019-Jul-18 10:29N 51°20' E 003°12'0 0.0
2019-Jul-18 09:53N 51°20' E 003°12'0 0.0
2019-Jul-18 09:29N 51°20' E 003°12'0 0.0
2019-Jul-18 08:59N 51°20' E 003°12'0 0.0
2019-Jul-18 08:29N 51°20' E 003°12'0 0.0
2019-Jul-18 07:59N 51°20' E 003°12'0 0.0
2019-Jul-18 07:29N 51°20' E 003°12'0 0.0
2019-Jul-18 06:56N 51°20' E 003°12'0 0.0
2019-Jul-18 06:20N 51°20' E 003°12'0 0.0
2019-Jul-18 05:59N 51°20' E 003°12'0 0.0
2019-Jul-18 05:26N 51°20' E 003°12'0 0.0
2019-Jul-18 04:59N 51°20' E 003°12'0 0.0
2019-Jul-18 04:29N 51°20' E 003°12'1 2.5
2019-Jul-18 04:00N 51°22' E 003°12'713.5
2019-Jul-18 03:31N 51°24' E 003°02'816.3
2019-Jul-18 03:01N 51°22' E 002°50'713.5
2019-Jul-18 02:31N 51°22' E 002°39'510.9
2019-Jul-18 02:00N 51°26' E 002°32'611.6
2019-Jul-18 01:31N 51°31' E 002°36'611.5
2019-Jul-18 01:01N 51°36' E 002°40'611.5
2019-Jul-18 00:30N 51°42' E 002°39'611.7
2019-Jul-18 00:01N 51°48' E 002°39'612.0
2019-Jul-17 23:31N 51°54' E 002°40'612.3
2019-Jul-17 23:01N 51°59' E 002°46'612.3
2019-Jul-17 22:30N 52°04' E 002°52'612.5
2019-Jul-17 22:00N 52°09' E 002°57'612.7
2019-Jul-17 21:30N 52°15' E 003°03'612.7
2019-Jul-17 21:00N 52°19' E 003°11'713.3
2019-Jul-17 20:31N 52°24' E 003°18'713.3
2019-Jul-17 20:01N 52°26' E 003°29'713.5
2019-Jul-17 19:30N 52°28' E 003°39'713.2
2019-Jul-17 19:00N 52°30' E 003°49'191141.8
2019-Jul-17 19:00N 52°24' E 004°18'1327.5 300 / 51013.210.8 20.014.918.6
2019-Jul-17 18:31N 52°31' E 003°60'612.6
2019-Jul-17 18:01N 52°31' E 004°10'612.9
2019-Jul-17 17:30N 52°30' E 004°20'612.4
2019-Jul-17 17:00N 52°28' E 004°30'3 4.6
2019-Jul-17 16:28N 52°28' E 004°34'0 0.0
2019-Jul-17 15:58N 52°28' E 004°34'0 0.0
2019-Jul-17 15:28N 52°28' E 004°34'0 0.0
2019-Jul-17 14:58N 52°28' E 004°34'0 0.0
2019-Jul-17 14:28N 52°28' E 004°34'0 0.0
2019-Jul-17 13:58N 52°28' E 004°34'0 0.0
2019-Jul-17 13:28N 52°28' E 004°34'0 0.0
2019-Jul-17 12:58N 52°28' E 004°34'0 0.0
2019-Jul-17 12:28N 52°28' E 004°34'0 0.0
2019-Jul-17 11:58N 52°28' E 004°34'0 0.0
2019-Jul-17 11:28N 52°28' E 004°34'0 0.0
2019-Jul-17 10:58N 52°28' E 004°34'0 0.0
2019-Jul-17 10:28N 52°28' E 004°34'0 0.0
2019-Jul-17 09:58N 52°28' E 004°34'0 0.0
2019-Jul-17 09:28N 52°28' E 004°34'0 0.0
2019-Jul-17 08:58N 52°28' E 004°34'0 0.0
2019-Jul-17 08:28N 52°28' E 004°34'0 0.0
2019-Jul-17 07:58N 52°28' E 004°34'0 0.0
2019-Jul-17 07:28N 52°28' E 004°34'0 0.0
2019-Jul-17 06:58N 52°28' E 004°34'0 0.0
2019-Jul-17 06:25N 52°28' E 004°34'0 0.0
2019-Jul-17 05:58N 52°28' E 004°34'0 0.0
2019-Jul-17 05:28N 52°28' E 004°34'0 0.0
2019-Jul-17 04:58N 52°28' E 004°34'0 0.0
2019-Jul-17 04:28N 52°28' E 004°34'0 0.0
2019-Jul-17 03:58N 52°28' E 004°34'0 0.0
2019-Jul-17 03:28N 52°28' E 004°34'0 0.0
2019-Jul-17 02:58N 52°28' E 004°34'0 0.0
2019-Jul-17 02:28N 52°28' E 004°34'0 0.0
2019-Jul-17 01:58N 52°28' E 004°34'0 0.0
2019-Jul-17 01:28N 52°28' E 004°34'0 0.0
2019-Jul-17 00:58N 52°28' E 004°34'0 0.0
2019-Jul-17 00:28N 52°28' E 004°34'0 0.0
2019-Jul-16 23:58N 52°28' E 004°34'0 0.0
2019-Jul-16 23:28N 52°28' E 004°34'0 0.0
2019-Jul-16 22:58N 52°28' E 004°34'0 0.0
2019-Jul-16 22:28N 52°28' E 004°34'0 0.0
2019-Jul-16 21:58N 52°28' E 004°34'0 0.0
2019-Jul-16 21:28N 52°28' E 004°34'0 0.0
2019-Jul-16 20:58N 52°28' E 004°34'0 0.0
2019-Jul-16 20:28N 52°28' E 004°34'0 0.0
2019-Jul-16 19:55N 52°28' E 004°34'0 0.0
2019-Jul-16 19:28N 52°28' E 004°34'0 0.0
2019-Jul-16 18:58N 52°28' E 004°34'0 0.0
2019-Jul-16 18:28N 52°28' E 004°34'0 0.0
2019-Jul-16 17:58N 52°28' E 004°34'0 0.0
2019-Jul-16 17:28N 52°28' E 004°34'0 0.0
2019-Jul-16 16:58N 52°28' E 004°34'0 0.0
2019-Jul-16 16:28N 52°28' E 004°34'0 0.0
2019-Jul-16 15:58N 52°28' E 004°34'0 0.0
2019-Jul-16 15:28N 52°28' E 004°34'0 0.0
2019-Jul-16 14:58N 52°28' E 004°34'0 0.0
2019-Jul-16 14:28N 52°28' E 004°34'0 0.0
2019-Jul-16 13:58N 52°28' E 004°34'0 0.0
2019-Jul-16 13:28N 52°28' E 004°34'0 0.0
2019-Jul-16 12:58N 52°28' E 004°34'0 0.0
2019-Jul-16 12:28N 52°28' E 004°34'0 0.0
2019-Jul-16 11:55N 52°28' E 004°34'0 0.0
2019-Jul-16 11:28N 52°28' E 004°34'0 0.0
2019-Jul-16 10:58N 52°28' E 004°34'0 0.0
2019-Jul-16 10:28N 52°28' E 004°34'0 0.0
2019-Jul-16 09:58N 52°28' E 004°34'0 0.0
2019-Jul-16 09:22N 52°28' E 004°34'0 0.0
2019-Jul-16 08:58N 52°28' E 004°34'0 0.0
2019-Jul-16 08:28N 52°28' E 004°34'0 0.0
2019-Jul-16 07:58N 52°28' E 004°34'0 0.0
2019-Jul-16 07:28N 52°28' E 004°34'0 0.0
2019-Jul-16 06:58N 52°28' E 004°34'0 0.0
2019-Jul-16 06:28N 52°28' E 004°34'0 0.0
2019-Jul-16 05:58N 52°28' E 004°34'0 0.0
2019-Jul-16 05:28N 52°28' E 004°34'0 0.0
2019-Jul-16 04:58N 52°28' E 004°34'0 0.0
2019-Jul-16 04:28N 52°28' E 004°34'0 0.4
2019-Jul-16 04:01N 52°28' E 004°34'3 5.9
2019-Jul-16 03:31N 52°28' E 004°29'612.5
2019-Jul-16 03:00N 52°28' E 004°19'510.3
2019-Jul-16 02:30N 52°29' E 004°11'510.8
2019-Jul-16 02:00N 52°28' E 004°02'510.5
2019-Jul-16 01:30N 52°27' E 003°54'510.7
2019-Jul-16 01:00N 52°24' E 003°46'611.3
2019-Jul-16 00:30N 52°21' E 003°39'611.6
2019-Jul-16 00:00N 52°17' E 003°31'611.3
2019-Jul-15 23:30N 52°14' E 003°23'611.2
2019-Jul-15 23:00N 52°11' E 003°16'510.7
2019-Jul-15 22:31N 52°06' E 003°11'5 9.9
2019-Jul-15 22:00N 52°02' E 003°07'5 9.6
2019-Jul-15 21:30N 51°60' E 003°00'5 9.4
2019-Jul-15 21:00N 51°58' E 002°53'5 9.0
2019-Jul-15 20:30N 51°54' E 002°49'4 8.8
2019-Jul-15 20:00N 51°51' E 002°44'4 8.8
2019-Jul-15 19:30N 51°48' E 002°39'4 8.2
2019-Jul-15 19:00N 51°45' E 002°35'11742.9
2019-Jul-15 19:00N 51°36' E 002°24'715.4 020 / 101021.410.8 16.012.416.0
2019-Jul-15 18:30N 51°42' E 002°31'4 7.3
2019-Jul-15 18:00N 51°39' E 002°28'4 7.7
2019-Jul-15 17:31N 51°36' E 002°24'4 8.0
2019-Jul-15 17:00N 51°33' E 002°20'4 8.3
2019-Jul-15 16:30N 51°30' E 002°15'4 8.7
2019-Jul-15 16:00N 51°27' E 002°11'4 8.7
2019-Jul-15 15:31N 51°23' E 002°08'5 9.1
2019-Jul-15 15:00N 51°18' E 002°06'4 8.9
2019-Jul-15 14:30N 51°14' E 002°04'5 9.4
2019-Jul-15 14:00N 51°11' E 001°58'5 9.8
2019-Jul-15 13:30N 51°09' E 001°52'510.0
2019-Jul-15 13:00N 51°06' E 001°45'510.5
2019-Jul-15 12:30N 51°02' E 001°39'510.8
2019-Jul-15 12:00N 50°58' E 001°34'611.0
2019-Jul-15 11:30N 50°54' E 001°28'510.8
2019-Jul-15 11:01N 50°48' E 001°26'510.0
2019-Jul-15 10:30N 50°44' E 001°23'6 9.8
2019-Jul-15 09:57N 50°40' E 001°16'4 9.7
2019-Jul-15 09:30N 50°37' E 001°11'5 9.6
2019-Jul-15 08:57N 50°34' E 001°05'4 9.4
2019-Jul-15 08:30N 50°32' E 000°59'6 9.8
2019-Jul-15 07:56N 50°30' E 000°51'4 9.8
2019-Jul-15 07:28N 50°29' E 000°44'510.0
2019-Jul-15 06:57N 50°27' E 000°36'510.0
2019-Jul-15 06:28N 50°26' E 000°29'4 9.4
2019-Jul-15 06:01N 50°25' E 000°22'5 9.2
2019-Jul-15 05:29N 50°24' E 000°15'4 8.4
2019-Jul-15 05:00N 50°22' E 000°10'5 8.1
2019-Jul-15 04:27N 50°21' E 000°03'3 7.8
2019-Jul-15 04:00N 50°20' W 000°02'4 7.5
2019-Jul-15 03:30N 50°19' W 000°08'4 7.2
2019-Jul-15 03:00N 50°18' W 000°14'3 6.9
2019-Jul-15 02:30N 50°17' W 000°19'3 6.7
2019-Jul-15 02:00N 50°16' W 000°24'3 6.7
2019-Jul-15 01:30N 50°16' W 000°29'3 6.7
2019-Jul-15 01:00N 50°15' W 000°34'3 6.8
2019-Jul-15 00:30N 50°14' W 000°39'3 6.9
2019-Jul-15 00:00N 50°13' W 000°44'3 6.6
2019-Jul-14 23:30N 50°12' W 000°49'3 6.7
2019-Jul-14 23:00N 50°11' W 000°55'5 6.4
2019-Jul-14 22:09N 50°15' W 001°01'2 8.7
2019-Jul-14 21:52N 50°17' W 001°02'4 8.9
2019-Jul-14 21:22N 50°21' W 001°05'3 8.9
2019-Jul-14 21:00N 50°24' W 001°07'4 7.7
2019-Jul-14 20:30N 50°28' W 001°05'4 7.5
2019-Jul-14 20:00N 50°31' W 001°01'4 7.0
2019-Jul-14 19:30N 50°34' W 000°59'4 7.6
2019-Jul-14 19:00N 50°38' W 000°59'3 6.6
2019-Jul-14 18:30N 50°41' W 000°58'611.2
2019-Jul-14 18:01N 50°44' W 001°05'917.9
2019-Jul-14 17:31N 50°47' W 001°18'4 8.9
2019-Jul-14 17:00N 50°51' W 001°20'3 6.8
2019-Jul-14 16:30N 50°54' W 001°24'0 0.2
2019-Jul-14 15:58N 50°54' W 001°24'0 0.0
2019-Jul-14 15:28N 50°54' W 001°24'0 0.0
2019-Jul-14 14:58N 50°54' W 001°24'0 0.0
2019-Jul-14 14:28N 50°54' W 001°24'0 0.0
2019-Jul-14 13:58N 50°54' W 001°24'0 0.0
2019-Jul-14 13:28N 50°54' W 001°24'0 0.0
2019-Jul-14 12:58N 50°54' W 001°24'0 0.0
2019-Jul-14 12:28N 50°54' W 001°24'0 0.0
2019-Jul-14 11:58N 50°54' W 001°24'0 0.0
2019-Jul-14 11:28N 50°54' W 001°24'0 0.0
2019-Jul-14 10:58N 50°54' W 001°24'0 0.0
2019-Jul-14 10:28N 50°54' W 001°24'0 0.0
2019-Jul-14 09:58N 50°54' W 001°24'0 0.0
2019-Jul-14 09:28N 50°54' W 001°24'0 0.0
2019-Jul-14 08:58N 50°54' W 001°24'0 0.0
2019-Jul-14 08:28N 50°54' W 001°24'0 0.0
2019-Jul-14 07:58N 50°54' W 001°24'0 0.0
2019-Jul-14 07:28N 50°54' W 001°24'0 0.0
2019-Jul-14 06:58N 50°54' W 001°24'0 0.0
2019-Jul-14 06:28N 50°54' W 001°24'0 0.0
2019-Jul-14 05:58N 50°54' W 001°24'0 0.0
2019-Jul-14 05:28N 50°54' W 001°24'1 1.4
2019-Jul-14 05:00N 50°53' W 001°24'5 9.2
2019-Jul-14 04:31N 50°50' W 001°19'4 8.0
2019-Jul-14 04:01N 50°46' W 001°16'816.2
2019-Jul-14 03:31N 50°44' W 001°03'713.4
2019-Jul-14 03:01N 50°40' W 000°55'714.4
2019-Jul-14 02:30N 50°37' W 000°45'1019.1
2019-Jul-14 02:01N 50°35' W 000°30'1020.9
2019-Jul-14 01:30N 50°33' W 000°14'1020.4
2019-Jul-14 01:00N 50°33' E 000°03'1021.1
2019-Jul-14 00:31N 50°36' E 000°18'1020.7
2019-Jul-14 00:00N 50°38' E 000°34'1020.0
2019-Jul-13 23:31N 50°43' E 000°48'1019.2
2019-Jul-13 23:01N 50°49' E 001°00'918.5
2019-Jul-13 22:30N 50°55' E 001°11'917.5
2019-Jul-13 22:01N 51°01' E 001°21'917.3
2019-Jul-13 21:30N 51°07' E 001°32'917.6
2019-Jul-13 21:01N 51°12' E 001°43'918.2
2019-Jul-13 20:30N 51°20' E 001°50'1019.3
2019-Jul-13 20:01N 51°29' E 001°57'1020.1
2019-Jul-13 19:31N 51°36' E 002°08'3567.0
2019-Jul-13 19:00N 52°06' E 002°36'24544.0 330 / 211021.810.8 16.014.316.0
2019-Jul-13 18:57N 51°44' E 002°21'920.5
2019-Jul-13 18:29N 51°52' E 002°30'1020.4
2019-Jul-13 18:00N 52°01' E 002°36'1121.7
2019-Jul-13 17:30N 52°11' E 002°39'1121.4
2019-Jul-13 17:00N 52°22' E 002°40'1121.1
2019-Jul-13 16:30N 52°33' E 002°38'1121.0
2019-Jul-13 16:00N 52°43' E 002°38'1020.6
2019-Jul-13 15:30N 52°53' E 002°38'1020.1
2019-Jul-13 15:00N 53°04' E 002°38'1019.6
2019-Jul-13 14:31N 53°13' E 002°43'1019.5
2019-Jul-13 14:00N 53°22' E 002°49'1019.6
2019-Jul-13 13:30N 53°31' E 002°54'1019.8
2019-Jul-13 13:00N 53°40' E 003°00'1019.9
2019-Jul-13 12:30N 53°49' E 003°08'1220.0
2019-Jul-13 11:53N 54°01' E 003°13'2320.3
2019-Jul-13 10:46N 54°24' E 003°20'620.3
2019-Jul-13 10:29N 54°29' E 003°21'1325.6
2019-Jul-13 10:00N 54°42' E 003°24'262.9 300 / 201019.310.8 14.012.215.5
2019-Jul-13 09:58N 54°40' E 003°23'1120.3
2019-Jul-13 09:24N 54°51' E 003°26'820.2
2019-Jul-13 09:00N 54°59' E 003°28'1020.2
2019-Jul-13 08:30N 55°09' E 003°30'1020.1
2019-Jul-13 08:00N 55°19' E 003°32'1020.2
2019-Jul-13 07:30N 55°30' E 003°33'1020.3
2019-Jul-13 07:00N 55°40' E 003°35'1020.3
2019-Jul-13 06:30N 55°50' E 003°37'1020.3
2019-Jul-13 06:00N 55°60' E 003°39'1020.3
2019-Jul-13 05:29N 56°10' E 003°40'1020.3
2019-Jul-13 05:00N 56°20' E 003°42'1020.7
2019-Jul-13 04:30N 56°30' E 003°44'1120.7
2019-Jul-13 04:00N 56°41' E 003°45'1020.6
2019-Jul-13 03:30N 56°51' E 003°45'1020.6
2019-Jul-13 03:00N 57°01' E 003°46'1120.6
2019-Jul-13 02:30N 57°12' E 003°47'1020.5
2019-Jul-13 02:00N 57°22' E 003°49'1020.6
2019-Jul-13 01:30N 57°32' E 003°50'1020.4
2019-Jul-13 01:00N 57°42' E 003°51'1020.6
2019-Jul-13 00:30N 57°53' E 003°53'1020.7
2019-Jul-13 00:01N 58°03' E 003°54'1120.8
2019-Jul-12 23:30N 58°13' E 003°56'1020.8
2019-Jul-12 23:00N 58°23' E 003°57'1020.3
2019-Jul-12 22:30N 58°33' E 003°59'1120.7
2019-Jul-12 22:00N 58°44' E 004°00'1020.8
2019-Jul-12 21:30N 58°54' E 004°02'1020.7
2019-Jul-12 21:00N 59°05' E 004°02'1020.7
2019-Jul-12 20:30N 59°15' E 004°02'1020.5
2019-Jul-12 20:00N 59°25' E 004°02'1120.6
2019-Jul-12 19:29N 59°36' E 004°03'920.3
2019-Jul-12 19:00N 59°46' E 004°03'261760.5
2019-Jul-12 19:00N 60°12' E 004°00'1633.3 340 / 181012.710.8 15.511.813.9
2019-Jul-12 18:30N 59°56' E 004°03'1020.8
2019-Jul-12 18:01N 60°06' E 004°03'1020.6
2019-Jul-12 17:30N 60°17' E 004°03'1020.0
2019-Jul-12 17:00N 60°26' E 004°09'1020.0
2019-Jul-12 16:31N 60°35' E 004°19'1019.7
2019-Jul-12 15:59N 60°42' E 004°33'612.0
2019-Jul-12 15:29N 60°44' E 004°45'613.0
2019-Jul-12 15:00N 60°38' E 004°52'918.5
2019-Jul-12 14:30N 60°30' E 004°59'714.8
2019-Jul-12 14:00N 60°24' E 005°08'510.1
2019-Jul-12 13:30N 60°24' E 005°18'0 0.5
2019-Jul-12 13:00N 60°24' E 005°19'0 0.0
2019-Jul-12 12:30N 60°24' E 005°19'0 0.0
2019-Jul-12 12:00N 60°24' E 005°19'0 0.0
2019-Jul-12 11:30N 60°24' E 005°19'0 0.0
2019-Jul-12 11:00N 60°24' E 005°19'0 0.0
2019-Jul-12 10:30N 60°24' E 005°19'0 0.0
2019-Jul-12 10:00N 60°24' E 005°19'0 0.0
2019-Jul-12 09:30N 60°24' E 005°19'0 0.0
2019-Jul-12 09:00N 60°24' E 005°19'0 0.0
2019-Jul-12 08:30N 60°24' E 005°19'0 0.0
2019-Jul-12 08:00N 60°24' E 005°19'0 0.0
2019-Jul-12 07:30N 60°24' E 005°19'0 0.0
2019-Jul-12 07:00N 60°24' E 005°19'0 0.0
2019-Jul-12 06:30N 60°24' E 005°19'0 0.0
2019-Jul-12 06:00N 60°24' E 005°19'0 0.0
2019-Jul-12 05:30N 60°24' E 005°19'0 0.0
2019-Jul-12 05:00N 60°24' E 005°19'0 0.2
2019-Jul-12 04:30N 60°24' E 005°19'3 5.6
2019-Jul-12 04:00N 60°24' E 005°13'5 9.3
2019-Jul-12 03:30N 60°25' E 005°04'713.8
2019-Jul-12 03:00N 60°31' E 004°57'1515.2
2019-Jul-12 02:00N 60°44' E 004°43'612.8
2019-Jul-12 01:30N 60°44' E 004°29'815.3
2019-Jul-12 01:00N 60°42' E 004°15'611.2
2019-Jul-12 00:30N 60°45' E 004°05'714.3
2019-Jul-12 00:00N 60°52' E 004°06'815.0
2019-Jul-11 23:30N 60°53' E 004°21'816.5
2019-Jul-11 23:00N 60°52' E 004°37'714.4
2019-Jul-11 22:30N 60°58' E 004°44'917.6
2019-Jul-11 22:00N 61°03' E 004°58'816.6
2019-Jul-11 21:30N 61°05' E 005°15'816.3
2019-Jul-11 21:00N 61°05' E 005°32'917.0
2019-Jul-11 20:30N 61°08' E 005°48'816.8
2019-Jul-11 20:00N 61°08' E 006°06'816.8
2019-Jul-11 19:30N 61°06' E 006°23'815.2
2019-Jul-11 19:00N 61°10' E 006°36'714.7
2019-Jul-11 18:30N 61°09' E 006°51'715.0
2019-Jul-11 18:01N 61°04' E 007°01'714.5
2019-Jul-11 17:30N 60°57' E 007°08'5 9.7
2019-Jul-11 17:00N 60°52' E 007°08'1 1.3
2019-Jul-11 16:27N 60°52' E 007°07'0 0.0
2019-Jul-11 15:56N 60°52' E 007°07'0 0.0
2019-Jul-11 15:27N 60°52' E 007°07'0 0.0
2019-Jul-11 14:57N 60°52' E 007°07'0 0.0
2019-Jul-11 14:27N 60°52' E 007°07'0 0.0
2019-Jul-11 13:56N 60°52' E 007°07'0 0.0
2019-Jul-11 13:27N 60°52' E 007°07'0 0.0
2019-Jul-11 12:57N 60°52' E 007°07'0 0.0
2019-Jul-11 12:27N 60°52' E 007°07'0 0.0
2019-Jul-11 11:57N 60°52' E 007°07'  
Track history (hours):
 
Tides and Currents Weather Stations Pressure Air Temp Water Temp Dewpoint Dewpoint Depression Visibility Wind Speed Wind Dir Waves Ship Positions

Ventura

Last reported at 2019-Jul-20 13:29 UTC. Time now 2019-Jul-20 13:54 UTC.
Position N 49°28' W 002°30'.

Length 289 m; draft 8.6 m.

Type: Passenger vessel. MMSI: 310562000.

Date/timePositionNaut miles runAvg speedWind from/ knotsBaromVisibWave heightAir tempDewpointWater temp
2019-Jul-20 13:29N 49°28' W 002°30'0 0.2
2019-Jul-20 12:59N 49°28' W 002°30'0 0.0
2019-Jul-20 12:29N 49°28' W 002°30'0 0.0
2019-Jul-20 11:59N 49°28' W 002°30'0 0.0
2019-Jul-20 11:29N 49°28' W 002°30'0 0.0
2019-Jul-20 10:59N 49°28' W 002°30'0 0.0
2019-Jul-20 10:26N 49°28' W 002°30'0 0.0
2019-Jul-20 09:59N 49°28' W 002°30'0 0.0
2019-Jul-20 09:29N 49°28' W 002°30'0 0.0
2019-Jul-20 08:59N 49°28' W 002°30'0 0.0
2019-Jul-20 08:26N 49°28' W 002°30'0 0.0
2019-Jul-20 07:59N 49°28' W 002°30'0 0.0
2019-Jul-20 07:29N 49°28' W 002°30'0 0.1
2019-Jul-20 06:59N 49°28' W 002°30'0 0.0
2019-Jul-20 06:29N 49°28' W 002°30'1 1.4
2019-Jul-20 06:00N 49°27' W 002°30'510.0
2019-Jul-20 05:30N 49°23' W 002°33'5 9.9
2019-Jul-20 05:00N 49°21' W 002°40'6 8.6
2019-Jul-20 04:20N 49°22' W 002°49'3 9.5
2019-Jul-20 03:59N 49°25' W 002°50'4 8.9
2019-Jul-20 03:30N 49°29' W 002°51'5 8.6
2019-Jul-20 02:58N 49°34' W 002°53'4 8.4
2019-Jul-20 02:30N 49°37' W 002°55'4 8.4
2019-Jul-20 02:00N 49°42' W 002°57'4 8.1
2019-Jul-20 01:30N 49°45' W 002°58'4 8.6
2019-Jul-20 01:00N 49°50' W 002°59'4 8.8
2019-Jul-20 00:30N 49°54' W 002°59'4 8.0
2019-Jul-20 00:00N 49°57' W 002°55'4 8.5
2019-Jul-19 23:30N 49°58' W 002°49'4 8.1
2019-Jul-19 23:00N 49°59' W 002°43'4 7.3
2019-Jul-19 22:30N 50°00' W 002°37'3 6.9
2019-Jul-19 22:00N 50°01' W 002°32'3 6.6
2019-Jul-19 21:30N 50°02' W 002°27'3 6.4
2019-Jul-19 21:00N 50°03' W 002°22'4 6.4
2019-Jul-19 20:19N 50°04' W 002°16'2 6.4
2019-Jul-19 20:00N 50°05' W 002°13'3 6.3
2019-Jul-19 19:30N 50°06' W 002°08'3 6.9
2019-Jul-19 19:00N 50°07' W 002°03'131260.8
2019-Jul-19 19:00N 50°06' W 001°42'1020.1 230 / 281009.8 0.3 18.517.715.7
2019-Jul-19 18:30N 50°08' W 001°57'4 8.4
2019-Jul-19 18:00N 50°09' W 001°51'5 9.0
2019-Jul-19 17:30N 50°10' W 001°44'5 9.9
2019-Jul-19 17:00N 50°11' W 001°36'510.4
2019-Jul-19 16:30N 50°13' W 001°29'510.6
2019-Jul-19 16:00N 50°14' W 001°21'510.9
2019-Jul-19 15:30N 50°15' W 001°12'611.2
2019-Jul-19 15:00N 50°17' W 001°04'510.7
2019-Jul-19 14:30N 50°18' W 000°56'5 9.7
2019-Jul-19 14:00N 50°20' W 000°49'5 9.2
2019-Jul-19 13:30N 50°21' W 000°42'4 8.6
2019-Jul-19 13:00N 50°22' W 000°35'4 7.8
2019-Jul-19 12:30N 50°24' W 000°30'4 7.6
2019-Jul-19 12:00N 50°24' W 000°24'4 7.2
2019-Jul-19 11:30N 50°25' W 000°18'3 6.8
2019-Jul-19 11:00N 50°26' W 000°13'3 6.5
2019-Jul-19 10:30N 50°27' W 000°08'3 6.4
2019-Jul-19 10:00N 50°27' W 000°03'3 6.4
2019-Jul-19 09:30N 50°28' E 000°02'3 6.5
2019-Jul-19 09:00N 50°29' E 000°07'4 6.5
2019-Jul-19 08:27N 50°30' E 000°12'3 7.1
2019-Jul-19 07:58N 50°31' E 000°17'4 7.7
2019-Jul-19 07:30N 50°32' E 000°23'4 8.2
2019-Jul-19 07:00N 50°33' E 000°29'8 8.5
2019-Jul-19 06:07N 50°36' E 000°40'4 8.9
2019-Jul-19 05:37N 50°39' E 000°45'1 8.8
2019-Jul-19 05:30N 50°40' E 000°46'4 8.7
2019-Jul-19 05:00N 50°42' E 000°52'4 8.4
2019-Jul-19 04:30N 50°45' E 000°57'4 8.1
2019-Jul-19 04:00N 50°47' E 001°02'4 7.7
2019-Jul-19 03:30N 50°49' E 001°07'4 7.2
2019-Jul-19 03:00N 50°52' E 001°12'4 7.0
2019-Jul-19 02:30N 50°54' E 001°16'4 7.1
2019-Jul-19 02:00N 50°56' E 001°20'3 6.6
2019-Jul-19 01:30N 50°59' E 001°24'3 6.4
2019-Jul-19 01:00N 51°01' E 001°27'3 6.3
2019-Jul-19 00:30N 51°03' E 001°31'3 6.3
2019-Jul-19 00:00N 51°06' E 001°34'3 6.3
2019-Jul-18 23:30N 51°08' E 001°38'3 6.7
2019-Jul-18 23:00N 51°10' E 001°42'4 8.4
2019-Jul-18 22:30N 51°13' E 001°46'4 8.8
2019-Jul-18 22:00N 51°17' E 001°50'5 9.5
2019-Jul-18 21:30N 51°21' E 001°54'5 9.4
2019-Jul-18 21:00N 51°24' E 001°59'4 7.5
2019-Jul-18 20:30N 51°24' E 002°05'4 8.0
2019-Jul-18 20:00N 51°22' E 002°11'4 8.0
2019-Jul-18 19:30N 51°21' E 002°16'4 7.8
2019-Jul-18 19:00N 51°21' E 002°23'9562.3
2019-Jul-18 19:00N 51°18' E 002°36'714.3 230 / 271009.910.8 19.015.616.8
2019-Jul-18 18:30N 51°23' E 002°28'4 7.9
2019-Jul-18 18:00N 51°23' E 002°34'4 8.3
2019-Jul-18 17:30N 51°23' E 002°41'5 9.0
2019-Jul-18 17:00N 51°25' E 002°48'713.7
2019-Jul-18 16:30N 51°25' E 002°59'714.4
2019-Jul-18 16:00N 51°23' E 003°10'3 4.8
2019-Jul-18 15:26N 51°20' E 003°12'0 0.0
2019-Jul-18 14:59N 51°20' E 003°12'0 0.0
2019-Jul-18 14:26N 51°20' E 003°12'0 0.0
2019-Jul-18 13:59N 51°20' E 003°12'0 0.0
2019-Jul-18 13:17N 51°20' E 003°12'0 0.0
2019-Jul-18 12:59N 51°20' E 003°12'0 0.0
2019-Jul-18 12:29N 51°20' E 003°12'0 0.0
2019-Jul-18 11:59N 51°20' E 003°12'0 0.0
2019-Jul-18 11:29N 51°20' E 003°12'0 0.0
2019-Jul-18 10:59N 51°20' E 003°12'0 0.0
2019-Jul-18 10:29N 51°20' E 003°12'0 0.0
2019-Jul-18 09:53N 51°20' E 003°12'0 0.0
2019-Jul-18 09:29N 51°20' E 003°12'0 0.0
2019-Jul-18 08:59N 51°20' E 003°12'0 0.0
2019-Jul-18 08:29N 51°20' E 003°12'0 0.0
2019-Jul-18 07:59N 51°20' E 003°12'0 0.0
2019-Jul-18 07:29N 51°20' E 003°12'0 0.0
2019-Jul-18 06:56N 51°20' E 003°12'0 0.0
2019-Jul-18 06:20N 51°20' E 003°12'0 0.0
2019-Jul-18 05:59N 51°20' E 003°12'0 0.0
2019-Jul-18 05:26N 51°20' E 003°12'0 0.0
2019-Jul-18 04:59N 51°20' E 003°12'0 0.0
2019-Jul-18 04:29N 51°20' E 003°12'1 2.5
2019-Jul-18 04:00N 51°22' E 003°12'713.5
2019-Jul-18 03:31N 51°24' E 003°02'816.3
2019-Jul-18 03:01N 51°22' E 002°50'713.5
2019-Jul-18 02:31N 51°22' E 002°39'510.9
2019-Jul-18 02:00N 51°26' E 002°32'611.6
2019-Jul-18 01:31N 51°31' E 002°36'611.5
2019-Jul-18 01:01N 51°36' E 002°40'611.5
2019-Jul-18 00:30N 51°42' E 002°39'611.7
2019-Jul-18 00:01N 51°48' E 002°39'612.0
2019-Jul-17 23:31N 51°54' E 002°40'612.3
2019-Jul-17 23:01N 51°59' E 002°46'612.3
2019-Jul-17 22:30N 52°04' E 002°52'612.5
2019-Jul-17 22:00N 52°09' E 002°57'612.7
2019-Jul-17 21:30N 52°15' E 003°03'612.7
2019-Jul-17 21:00N 52°19' E 003°11'713.3
2019-Jul-17 20:31N 52°24' E 003°18'713.3
2019-Jul-17 20:01N 52°26' E 003°29'713.5
2019-Jul-17 19:30N 52°28' E 003°39'713.2
2019-Jul-17 19:00N 52°30' E 003°49'191141.8
2019-Jul-17 19:00N 52°24' E 004°18'1327.5 300 / 51013.210.8 20.014.918.6
2019-Jul-17 18:31N 52°31' E 003°60'612.6
2019-Jul-17 18:01N 52°31' E 004°10'612.9
2019-Jul-17 17:30N 52°30' E 004°20'612.4
2019-Jul-17 17:00N 52°28' E 004°30'3 4.6
2019-Jul-17 16:28N 52°28' E 004°34'0 0.0
2019-Jul-17 15:58N 52°28' E 004°34'0 0.0
2019-Jul-17 15:28N 52°28' E 004°34'0 0.0
2019-Jul-17 14:58N 52°28' E 004°34'0 0.0
2019-Jul-17 14:28N 52°28' E 004°34'0 0.0
2019-Jul-17 13:58N 52°28' E 004°34'0 0.0
2019-Jul-17 13:28N 52°28' E 004°34'0 0.0
2019-Jul-17 12:58N 52°28' E 004°34'0 0.0
2019-Jul-17 12:28N 52°28' E 004°34'0 0.0
2019-Jul-17 11:58N 52°28' E 004°34'0 0.0
2019-Jul-17 11:28N 52°28' E 004°34'0 0.0
2019-Jul-17 10:58N 52°28' E 004°34'0 0.0
2019-Jul-17 10:28N 52°28' E 004°34'0 0.0
2019-Jul-17 09:58N 52°28' E 004°34'0 0.0
2019-Jul-17 09:28N 52°28' E 004°34'0 0.0
2019-Jul-17 08:58N 52°28' E 004°34'0 0.0
2019-Jul-17 08:28N 52°28' E 004°34'0 0.0
2019-Jul-17 07:58N 52°28' E 004°34'0 0.0
2019-Jul-17 07:28N 52°28' E 004°34'0 0.0
2019-Jul-17 06:58N 52°28' E 004°34'0 0.0
2019-Jul-17 06:25N 52°28' E 004°34'0 0.0
2019-Jul-17 05:58N 52°28' E 004°34'0 0.0
2019-Jul-17 05:28N 52°28' E 004°34'0 0.0
2019-Jul-17 04:58N 52°28' E 004°34'0 0.0
2019-Jul-17 04:28N 52°28' E 004°34'0 0.0
2019-Jul-17 03:58N 52°28' E 004°34'0 0.0
2019-Jul-17 03:28N 52°28' E 004°34'0 0.0
2019-Jul-17 02:58N 52°28' E 004°34'0 0.0
2019-Jul-17 02:28N 52°28' E 004°34'0 0.0
2019-Jul-17 01:58N 52°28' E 004°34'0 0.0
2019-Jul-17 01:28N 52°28' E 004°34'0 0.0
2019-Jul-17 00:58N 52°28' E 004°34'0 0.0
2019-Jul-17 00:28N 52°28' E 004°34'0 0.0
2019-Jul-16 23:58N 52°28' E 004°34'0 0.0
2019-Jul-16 23:28N 52°28' E 004°34'0 0.0
2019-Jul-16 22:58N 52°28' E 004°34'0 0.0
2019-Jul-16 22:28N 52°28' E 004°34'0 0.0
2019-Jul-16 21:58N 52°28' E 004°34'0 0.0
2019-Jul-16 21:28N 52°28' E 004°34'0 0.0
2019-Jul-16 20:58N 52°28' E 004°34'0 0.0
2019-Jul-16 20:28N 52°28' E 004°34'0 0.0
2019-Jul-16 19:55N 52°28' E 004°34'0 0.0
2019-Jul-16 19:28N 52°28' E 004°34'0 0.0
2019-Jul-16 18:58N 52°28' E 004°34'0 0.0
2019-Jul-16 18:28N 52°28' E 004°34'0 0.0
2019-Jul-16 17:58N 52°28' E 004°34'0 0.0
2019-Jul-16 17:28N 52°28' E 004°34'0 0.0
2019-Jul-16 16:58N 52°28' E 004°34'0 0.0
2019-Jul-16 16:28N 52°28' E 004°34'0 0.0
2019-Jul-16 15:58N 52°28' E 004°34'0 0.0
2019-Jul-16 15:28N 52°28' E 004°34'0 0.0
2019-Jul-16 14:58N 52°28' E 004°34'0 0.0
2019-Jul-16 14:28N 52°28' E 004°34'0 0.0
2019-Jul-16 13:58N 52°28' E 004°34'0 0.0
2019-Jul-16 13:28N 52°28' E 004°34'0 0.0
2019-Jul-16 12:58N 52°28' E 004°34'0 0.0
2019-Jul-16 12:28N 52°28' E 004°34'0 0.0
2019-Jul-16 11:55N 52°28' E 004°34'0 0.0
2019-Jul-16 11:28N 52°28' E 004°34'0 0.0
2019-Jul-16 10:58N 52°28' E 004°34'0 0.0
2019-Jul-16 10:28N 52°28' E 004°34'0 0.0
2019-Jul-16 09:58N 52°28' E 004°34'0 0.0
2019-Jul-16 09:22N 52°28' E 004°34'0 0.0
2019-Jul-16 08:58N 52°28' E 004°34'0 0.0
2019-Jul-16 08:28N 52°28' E 004°34'0 0.0
2019-Jul-16 07:58N 52°28' E 004°34'0 0.0
2019-Jul-16 07:28N 52°28' E 004°34'0 0.0
2019-Jul-16 06:58N 52°28' E 004°34'0 0.0
2019-Jul-16 06:28N 52°28' E 004°34'0 0.0
2019-Jul-16 05:58N 52°28' E 004°34'0 0.0
2019-Jul-16 05:28N 52°28' E 004°34'0 0.0
2019-Jul-16 04:58N 52°28' E 004°34'0 0.0
2019-Jul-16 04:28N 52°28' E 004°34'0 0.4
2019-Jul-16 04:01N 52°28' E 004°34'3 5.9
2019-Jul-16 03:31N 52°28' E 004°29'612.5
2019-Jul-16 03:00N 52°28' E 004°19'510.3
2019-Jul-16 02:30N 52°29' E 004°11'510.8
2019-Jul-16 02:00N 52°28' E 004°02'510.5
2019-Jul-16 01:30N 52°27' E 003°54'510.7
2019-Jul-16 01:00N 52°24' E 003°46'611.3
2019-Jul-16 00:30N 52°21' E 003°39'611.6
2019-Jul-16 00:00N 52°17' E 003°31'611.3
2019-Jul-15 23:30N 52°14' E 003°23'611.2
2019-Jul-15 23:00N 52°11' E 003°16'510.7
2019-Jul-15 22:31N 52°06' E 003°11'5 9.9
2019-Jul-15 22:00N 52°02' E 003°07'5 9.6
2019-Jul-15 21:30N 51°60' E 003°00'5 9.4
2019-Jul-15 21:00N 51°58' E 002°53'5 9.0
2019-Jul-15 20:30N 51°54' E 002°49'4 8.8
2019-Jul-15 20:00N 51°51' E 002°44'4 8.8
2019-Jul-15 19:30N 51°48' E 002°39'4 8.2
2019-Jul-15 19:00N 51°45' E 002°35'11742.9
2019-Jul-15 19:00N 51°36' E 002°24'715.4 020 / 101021.410.8 16.012.416.0
2019-Jul-15 18:30N 51°42' E 002°31'4 7.3
2019-Jul-15 18:00N 51°39' E 002°28'4 7.7
2019-Jul-15 17:31N 51°36' E 002°24'4 8.0
2019-Jul-15 17:00N 51°33' E 002°20'4 8.3
2019-Jul-15 16:30N 51°30' E 002°15'4 8.7
2019-Jul-15 16:00N 51°27' E 002°11'4 8.7
2019-Jul-15 15:31N 51°23' E 002°08'5 9.1
2019-Jul-15 15:00N 51°18' E 002°06'4 8.9
2019-Jul-15 14:30N 51°14' E 002°04'5 9.4
2019-Jul-15 14:00N 51°11' E 001°58'5 9.8
2019-Jul-15 13:30N 51°09' E 001°52'510.0
2019-Jul-15 13:00N 51°06' E 001°45'510.5
2019-Jul-15 12:30N 51°02' E 001°39'510.8
2019-Jul-15 12:00N 50°58' E 001°34'611.0
2019-Jul-15 11:30N 50°54' E 001°28'510.8
2019-Jul-15 11:01N 50°48' E 001°26'510.0
2019-Jul-15 10:30N 50°44' E 001°23'6 9.8
2019-Jul-15 09:57N 50°40' E 001°16'4 9.7
2019-Jul-15 09:30N 50°37' E 001°11'5 9.6
2019-Jul-15 08:57N 50°34' E 001°05'4 9.4
2019-Jul-15 08:30N 50°32' E 000°59'6 9.8
2019-Jul-15 07:56N 50°30' E 000°51'4 9.8
2019-Jul-15 07:28N 50°29' E 000°44'510.0
2019-Jul-15 06:57N 50°27' E 000°36'510.0
2019-Jul-15 06:28N 50°26' E 000°29'4 9.4
2019-Jul-15 06:01N 50°25' E 000°22'5 9.2
2019-Jul-15 05:29N 50°24' E 000°15'4 8.4
2019-Jul-15 05:00N 50°22' E 000°10'5 8.1
2019-Jul-15 04:27N 50°21' E 000°03'3 7.8
2019-Jul-15 04:00N 50°20' W 000°02'4 7.5
2019-Jul-15 03:30N 50°19' W 000°08'4 7.2
2019-Jul-15 03:00N 50°18' W 000°14'3 6.9
2019-Jul-15 02:30N 50°17' W 000°19'3 6.7
2019-Jul-15 02:00N 50°16' W 000°24'3 6.7
2019-Jul-15 01:30N 50°16' W 000°29'3 6.7
2019-Jul-15 01:00N 50°15' W 000°34'3 6.8
2019-Jul-15 00:30N 50°14' W 000°39'3 6.9
2019-Jul-15 00:00N 50°13' W 000°44'3 6.6
2019-Jul-14 23:30N 50°12' W 000°49'3 6.7
2019-Jul-14 23:00N 50°11' W 000°55'5 6.4
2019-Jul-14 22:09N 50°15' W 001°01'2 8.7
2019-Jul-14 21:52N 50°17' W 001°02'4 8.9
2019-Jul-14 21:22N 50°21' W 001°05'3 8.9
2019-Jul-14 21:00N 50°24' W 001°07'4 7.7
2019-Jul-14 20:30N 50°28' W 001°05'4 7.5
2019-Jul-14 20:00N 50°31' W 001°01'4 7.0
2019-Jul-14 19:30N 50°34' W 000°59'4 7.6
2019-Jul-14 19:00N 50°38' W 000°59'3 6.6
2019-Jul-14 18:30N 50°41' W 000°58'611.2
2019-Jul-14 18:01N 50°44' W 001°05'917.9
2019-Jul-14 17:31N 50°47' W 001°18'4 8.9
2019-Jul-14 17:00N 50°51' W 001°20'3 6.8
2019-Jul-14 16:30N 50°54' W 001°24'0 0.2
2019-Jul-14 15:58N 50°54' W 001°24'0 0.0
2019-Jul-14 15:28N 50°54' W 001°24'0 0.0
2019-Jul-14 14:58N 50°54' W 001°24'0 0.0
2019-Jul-14 14:28N 50°54' W 001°24'0 0.0
2019-Jul-14 13:58N 50°54' W 001°24'0 0.0
2019-Jul-14 13:28N 50°54' W 001°24'0 0.0
2019-Jul-14 12:58N 50°54' W 001°24'0 0.0
2019-Jul-14 12:28N 50°54' W 001°24'0 0.0
2019-Jul-14 11:58N 50°54' W 001°24'0 0.0
2019-Jul-14 11:28N 50°54' W 001°24'0 0.0
2019-Jul-14 10:58N 50°54' W 001°24'0 0.0
2019-Jul-14 10:28N 50°54' W 001°24'0 0.0
2019-Jul-14 09:58N 50°54' W 001°24'0 0.0
2019-Jul-14 09:28N 50°54' W 001°24'0 0.0
2019-Jul-14 08:58N 50°54' W 001°24'0 0.0
2019-Jul-14 08:28N 50°54' W 001°24'0 0.0
2019-Jul-14 07:58N 50°54' W 001°24'0 0.0
2019-Jul-14 07:28N 50°54' W 001°24'0 0.0
2019-Jul-14 06:58N 50°54' W 001°24'0 0.0
2019-Jul-14 06:28N 50°54' W 001°24'0 0.0
2019-Jul-14 05:58N 50°54' W 001°24'0 0.0
2019-Jul-14 05:28N 50°54' W 001°24'1 1.4
2019-Jul-14 05:00N 50°53' W 001°24'5 9.2
2019-Jul-14 04:31N 50°50' W 001°19'4 8.0
2019-Jul-14 04:01N 50°46' W 001°16'816.2
2019-Jul-14 03:31N 50°44' W 001°03'713.4
2019-Jul-14 03:01N 50°40' W 000°55'714.4
2019-Jul-14 02:30N 50°37' W 000°45'1019.1
2019-Jul-14 02:01N 50°35' W 000°30'1020.9
2019-Jul-14 01:30N 50°33' W 000°14'1020.4
2019-Jul-14 01:00N 50°33' E 000°03'1021.1
2019-Jul-14 00:31N 50°36' E 000°18'1020.7
2019-Jul-14 00:00N 50°38' E 000°34'1020.0
2019-Jul-13 23:31N 50°43' E 000°48'1019.2
2019-Jul-13 23:01N 50°49' E 001°00'918.5
2019-Jul-13 22:30N 50°55' E 001°11'917.5
2019-Jul-13 22:01N 51°01' E 001°21'917.3
2019-Jul-13 21:30N 51°07' E 001°32'917.6
2019-Jul-13 21:01N 51°12' E 001°43'918.2
2019-Jul-13 20:30N 51°20' E 001°50'1019.3
2019-Jul-13 20:01N 51°29' E 001°57'1020.1
2019-Jul-13 19:31N 51°36' E 002°08'3567.0
2019-Jul-13 19:00N 52°06' E 002°36'24544.0 330 / 211021.810.8 16.014.316.0
2019-Jul-13 18:57N 51°44' E 002°21'920.5
2019-Jul-13 18:29N 51°52' E 002°30'1020.4
2019-Jul-13 18:00N 52°01' E 002°36'1121.7
2019-Jul-13 17:30N 52°11' E 002°39'1121.4
2019-Jul-13 17:00N 52°22' E 002°40'1121.1
2019-Jul-13 16:30N 52°33' E 002°38'1121.0
2019-Jul-13 16:00N 52°43' E 002°38'1020.6
2019-Jul-13 15:30N 52°53' E 002°38'1020.1
2019-Jul-13 15:00N 53°04' E 002°38'1019.6
2019-Jul-13 14:31N 53°13' E 002°43'1019.5
2019-Jul-13 14:00N 53°22' E 002°49'1019.6
2019-Jul-13 13:30N 53°31' E 002°54'1019.8
2019-Jul-13 13:00N 53°40' E 003°00'1019.9
2019-Jul-13 12:30N 53°49' E 003°08'1220.0
2019-Jul-13 11:53N 54°01' E 003°13'2320.3
2019-Jul-13 10:46N 54°24' E 003°20'620.3
2019-Jul-13 10:29N 54°29' E 003°21'1325.6
2019-Jul-13 10:00N 54°42' E 003°24'262.9 300 / 201019.310.8 14.012.215.5
2019-Jul-13 09:58N 54°40' E 003°23'1120.3
2019-Jul-13 09:24N 54°51' E 003°26'820.2
2019-Jul-13 09:00N 54°59' E 003°28'1020.2
2019-Jul-13 08:30N 55°09' E 003°30'1020.1
2019-Jul-13 08:00N 55°19' E 003°32'1020.2
2019-Jul-13 07:30N 55°30' E 003°33'1020.3
2019-Jul-13 07:00N 55°40' E 003°35'1020.3
2019-Jul-13 06:30N 55°50' E 003°37'1020.3
2019-Jul-13 06:00N 55°60' E 003°39'1020.3
2019-Jul-13 05:29N 56°10' E 003°40'1020.3
2019-Jul-13 05:00N 56°20' E 003°42'1020.7
2019-Jul-13 04:30N 56°30' E 003°44'1120.7
2019-Jul-13 04:00N 56°41' E 003°45'1020.6
2019-Jul-13 03:30N 56°51' E 003°45'1020.6
2019-Jul-13 03:00N 57°01' E 003°46'1120.6
2019-Jul-13 02:30N 57°12' E 003°47'1020.5
2019-Jul-13 02:00N 57°22' E 003°49'1020.6
2019-Jul-13 01:30N 57°32' E 003°50'1020.4
2019-Jul-13 01:00N 57°42' E 003°51'1020.6
2019-Jul-13 00:30N 57°53' E 003°53'1020.7
2019-Jul-13 00:01N 58°03' E 003°54'1120.8
2019-Jul-12 23:30N 58°13' E 003°56'1020.8
2019-Jul-12 23:00N 58°23' E 003°57'1020.3
2019-Jul-12 22:30N 58°33' E 003°59'1120.7
2019-Jul-12 22:00N 58°44' E 004°00'1020.8
2019-Jul-12 21:30N 58°54' E 004°02'1020.7
2019-Jul-12 21:00N 59°05' E 004°02'1020.7
2019-Jul-12 20:30N 59°15' E 004°02'1020.5
2019-Jul-12 20:00N 59°25' E 004°02'1120.6
2019-Jul-12 19:29N 59°36' E 004°03'920.3
2019-Jul-12 19:00N 59°46' E 004°03'261760.5
2019-Jul-12 19:00N 60°12' E 004°00'1633.3 340 / 181012.710.8 15.511.813.9
2019-Jul-12 18:30N 59°56' E 004°03'1020.8
2019-Jul-12 18:01N 60°06' E 004°03'1020.6
2019-Jul-12 17:30N 60°17' E 004°03'1020.0
2019-Jul-12 17:00N 60°26' E 004°09'1020.0
2019-Jul-12 16:31N 60°35' E 004°19'1019.7
2019-Jul-12 15:59N 60°42' E 004°33'612.0
2019-Jul-12 15:29N 60°44' E 004°45'613.0
2019-Jul-12 15:00N 60°38' E 004°52'918.5
2019-Jul-12 14:30N 60°30' E 004°59'714.8
2019-Jul-12 14:00N 60°24' E 005°08'510.1
2019-Jul-12 13:30N 60°24' E 005°18'0 0.5
2019-Jul-12 13:00N 60°24' E 005°19'0 0.0
2019-Jul-12 12:30N 60°24' E 005°19'0 0.0
2019-Jul-12 12:00N 60°24' E 005°19'0 0.0
2019-Jul-12 11:30N 60°24' E 005°19'0 0.0
2019-Jul-12 11:00N 60°24' E 005°19'0 0.0
2019-Jul-12 10:30N 60°24' E 005°19'0 0.0
2019-Jul-12 10:00N 60°24' E 005°19'0 0.0
2019-Jul-12 09:30N 60°24' E 005°19'0 0.0
2019-Jul-12 09:00N 60°24' E 005°19'0 0.0
2019-Jul-12 08:30N 60°24' E 005°19'0 0.0
2019-Jul-12 08:00N 60°24' E 005°19'0 0.0
2019-Jul-12 07:30N 60°24' E 005°19'0 0.0
2019-Jul-12 07:00N 60°24' E 005°19'0 0.0
2019-Jul-12 06:30N 60°24' E 005°19'0 0.0
2019-Jul-12 06:00N 60°24' E 005°19'0 0.0
2019-Jul-12 05:30N 60°24' E 005°19'0 0.0
2019-Jul-12 05:00N 60°24' E 005°19'0 0.2
2019-Jul-12 04:30N 60°24' E 005°19'3 5.6
2019-Jul-12 04:00N 60°24' E 005°13'5 9.3
2019-Jul-12 03:30N 60°25' E 005°04'713.8
2019-Jul-12 03:00N 60°31' E 004°57'1515.2
2019-Jul-12 02:00N 60°44' E 004°43'612.8
2019-Jul-12 01:30N 60°44' E 004°29'815.3
2019-Jul-12 01:00N 60°42' E 004°15'611.2
2019-Jul-12 00:30N 60°45' E 004°05'714.3
2019-Jul-12 00:00N 60°52' E 004°06'815.0
2019-Jul-11 23:30N 60°53' E 004°21'816.5
2019-Jul-11 23:00N 60°52' E 004°37'714.4
2019-Jul-11 22:30N 60°58' E 004°44'917.6
2019-Jul-11 22:00N 61°03' E 004°58'816.6
2019-Jul-11 21:30N 61°05' E 005°15'816.3
2019-Jul-11 21:00N 61°05' E 005°32'917.0
2019-Jul-11 20:30N 61°08' E 005°48'816.8
2019-Jul-11 20:00N 61°08' E 006°06'816.8
2019-Jul-11 19:30N 61°06' E 006°23'815.2
2019-Jul-11 19:00N 61°10' E 006°36'714.7
2019-Jul-11 18:30N 61°09' E 006°51'715.0
2019-Jul-11 18:01N 61°04' E 007°01'714.5
2019-Jul-11 17:30N 60°57' E 007°08'5 9.7
2019-Jul-11 17:00N 60°52' E 007°08'1 1.3
2019-Jul-11 16:27N 60°52' E 007°07'0 0.0
2019-Jul-11 15:56N 60°52' E 007°07'0 0.0
2019-Jul-11 15:27N 60°52' E 007°07'0 0.0
2019-Jul-11 14:57N 60°52' E 007°07'0 0.0
2019-Jul-11 14:27N 60°52' E 007°07'0 0.0
2019-Jul-11 13:56N 60°52' E 007°07'0 0.0
2019-Jul-11 13:27N 60°52' E 007°07'0 0.0
2019-Jul-11 12:57N 60°52' E 007°07'0 0.0
2019-Jul-11 12:27N 60°52' E 007°07'0 0.0
2019-Jul-11 11:57N 60°52' E 007°07'  

Dump ship's entire track history